sensor_id;sensor_type;location;lat;lon;timestamp;temperature;humidity
7958;DHT22;4024;52.172;5.378;2023-06-14T00:01:17;22.80;53.70
7958;DHT22;4024;52.172;5.378;2023-06-14T00:03:45;22.80;54.10
7958;DHT22;4024;52.172;5.378;2023-06-14T00:06:13;22.70;54.30
7958;DHT22;4024;52.172;5.378;2023-06-14T00:08:38;22.70;54.60
7958;DHT22;4024;52.172;5.378;2023-06-14T00:11:05;22.60;54.70
7958;DHT22;4024;52.172;5.378;2023-06-14T00:13:31;22.60;55.10
7958;DHT22;4024;52.172;5.378;2023-06-14T00:15:56;22.60;55.30
7958;DHT22;4024;52.172;5.378;2023-06-14T00:18:22;22.50;55.50
7958;DHT22;4024;52.172;5.378;2023-06-14T00:20:50;22.50;55.80
7958;DHT22;4024;52.172;5.378;2023-06-14T00:23:16;22.50;55.80
7958;DHT22;4024;52.172;5.378;2023-06-14T00:25:42;22.50;55.80
7958;DHT22;4024;52.172;5.378;2023-06-14T00:28:07;22.40;56.00
7958;DHT22;4024;52.172;5.378;2023-06-14T00:30:33;22.40;56.00
7958;DHT22;4024;52.172;5.378;2023-06-14T00:33:00;22.40;56.30
7958;DHT22;4024;52.172;5.378;2023-06-14T00:35:25;22.40;56.30
7958;DHT22;4024;52.172;5.378;2023-06-14T00:37:51;22.40;56.20
7958;DHT22;4024;52.172;5.378;2023-06-14T00:40:17;22.30;56.40
7958;DHT22;4024;52.172;5.378;2023-06-14T00:42:42;22.30;56.50
7958;DHT22;4024;52.172;5.378;2023-06-14T00:45:08;22.30;56.50
7958;DHT22;4024;52.172;5.378;2023-06-14T00:47:36;22.30;56.90
7958;DHT22;4024;52.172;5.378;2023-06-14T00:50:03;22.10;56.70
7958;DHT22;4024;52.172;5.378;2023-06-14T00:52:31;22.20;56.80
7958;DHT22;4024;52.172;5.378;2023-06-14T00:54:58;22.20;56.90
7958;DHT22;4024;52.172;5.378;2023-06-14T00:57:23;22.20;57.00
7958;DHT22;4024;52.172;5.378;2023-06-14T00:59:49;22.10;56.90
7958;DHT22;4024;52.172;5.378;2023-06-14T01:02:15;22.10;57.40
7958;DHT22;4024;52.172;5.378;2023-06-14T01:04:43;22.00;57.30
7958;DHT22;4024;52.172;5.378;2023-06-14T01:12:48;22.00;57.30
7958;DHT22;4024;52.172;5.378;2023-06-14T01:15:16;22.00;57.30
7958;DHT22;4024;52.172;5.378;2023-06-14T01:17:44;22.00;57.30
7958;DHT22;4024;52.172;5.378;2023-06-14T01:20:15;21.90;57.50
7958;DHT22;4024;52.172;5.378;2023-06-14T01:22:51;21.90;57.50
7958;DHT22;4024;52.172;5.378;2023-06-14T01:25:18;21.90;57.50
7958;DHT22;4024;52.172;5.378;2023-06-14T01:27:58;21.90;57.40
7958;DHT22;4024;52.172;5.378;2023-06-14T01:30:26;21.90;57.60
7958;DHT22;4024;52.172;5.378;2023-06-14T01:32:53;21.80;57.50
7958;DHT22;4024;52.172;5.378;2023-06-14T01:35:20;21.80;57.70
7958;DHT22;4024;52.172;5.378;2023-06-14T01:37:47;21.80;57.70
7958;DHT22;4024;52.172;5.378;2023-06-14T01:40:15;21.70;58.20
7958;DHT22;4024;52.172;5.378;2023-06-14T01:42:42;21.70;58.10
7958;DHT22;4024;52.172;5.378;2023-06-14T01:45:10;21.70;58.40
7958;DHT22;4024;52.172;5.378;2023-06-14T01:47:36;21.60;58.30
7958;DHT22;4024;52.172;5.378;2023-06-14T01:50:03;21.60;58.20
7958;DHT22;4024;52.172;5.378;2023-06-14T01:52:29;21.60;58.20
7958;DHT22;4024;52.172;5.378;2023-06-14T01:54:55;21.60;58.30
7958;DHT22;4024;52.172;5.378;2023-06-14T01:57:22;21.60;58.40
7958;DHT22;4024;52.172;5.378;2023-06-14T01:59:48;21.50;58.50
7958;DHT22;4024;52.172;5.378;2023-06-14T02:02:14;21.50;58.70
7958;DHT22;4024;52.172;5.378;2023-06-14T02:04:40;21.50;58.90
7958;DHT22;4024;52.172;5.378;2023-06-14T02:07:06;21.40;59.10
7958;DHT22;4024;52.172;5.378;2023-06-14T02:09:32;21.40;58.90
7958;DHT22;4024;52.172;5.378;2023-06-14T02:11:57;21.40;59.20
7958;DHT22;4024;52.172;5.378;2023-06-14T02:14:24;21.40;59.50
7958;DHT22;4024;52.172;5.378;2023-06-14T02:16:50;21.30;59.60
7958;DHT22;4024;52.172;5.378;2023-06-14T02:19:16;21.30;59.90
7958;DHT22;4024;52.172;5.378;2023-06-14T02:21:42;21.30;59.70
7958;DHT22;4024;52.172;5.378;2023-06-14T02:24:08;21.10;59.60
7958;DHT22;4024;52.172;5.378;2023-06-14T02:26:33;21.20;59.70
7958;DHT22;4024;52.172;5.378;2023-06-14T02:28:59;21.10;61.30
7958;DHT22;4024;52.172;5.378;2023-06-14T02:31:26;21.10;60.40
7958;DHT22;4024;52.172;5.378;2023-06-14T02:33:52;21.10;60.40
7958;DHT22;4024;52.172;5.378;2023-06-14T02:36:17;21.10;60.60
7958;DHT22;4024;52.172;5.378;2023-06-14T02:38:43;21.20;61.10
7958;DHT22;4024;52.172;5.378;2023-06-14T02:41:09;21.00;61.20
7958;DHT22;4024;52.172;5.378;2023-06-14T02:43:34;21.00;61.60
7958;DHT22;4024;52.172;5.378;2023-06-14T02:46:00;20.90;61.50
7958;DHT22;4024;52.172;5.378;2023-06-14T02:48:27;20.90;61.50
7958;DHT22;4024;52.172;5.378;2023-06-14T02:50:53;20.90;62.20
7958;DHT22;4024;52.172;5.378;2023-06-14T02:53:18;20.90;62.80
7958;DHT22;4024;52.172;5.378;2023-06-14T02:55:44;20.80;63.00
7958;DHT22;4024;52.172;5.378;2023-06-14T02:58:09;20.80;62.90
7958;DHT22;4024;52.172;5.378;2023-06-14T03:00:35;20.70;62.80
7958;DHT22;4024;52.172;5.378;2023-06-14T03:03:01;20.70;62.60
7958;DHT22;4024;52.172;5.378;2023-06-14T03:05:27;20.70;62.90
7958;DHT22;4024;52.172;5.378;2023-06-14T03:07:53;20.70;63.50
7958;DHT22;4024;52.172;5.378;2023-06-14T03:10:19;20.60;63.70
7958;DHT22;4024;52.172;5.378;2023-06-14T03:12:46;20.60;64.30
7958;DHT22;4024;52.172;5.378;2023-06-14T03:15:12;20.50;64.40
7958;DHT22;4024;52.172;5.378;2023-06-14T03:17:42;20.50;64.20
7958;DHT22;4024;52.172;5.378;2023-06-14T03:20:10;20.50;64.50
7958;DHT22;4024;52.172;5.378;2023-06-14T03:22:36;20.50;64.90
7958;DHT22;4024;52.172;5.378;2023-06-14T03:25:04;20.50;65.00
7958;DHT22;4024;52.172;5.378;2023-06-14T03:27:29;20.40;65.30
7958;DHT22;4024;52.172;5.378;2023-06-14T03:29:55;20.40;65.40
7958;DHT22;4024;52.172;5.378;2023-06-14T03:32:21;20.30;65.30
7958;DHT22;4024;52.172;5.378;2023-06-14T03:34:46;20.30;66.00
7958;DHT22;4024;52.172;5.378;2023-06-14T03:37:12;20.30;66.00
7958;DHT22;4024;52.172;5.378;2023-06-14T03:39:37;20.20;66.30
7958;DHT22;4024;52.172;5.378;2023-06-14T03:42:03;20.20;66.60
7958;DHT22;4024;52.172;5.378;2023-06-14T03:44:29;20.20;66.80
7958;DHT22;4024;52.172;5.378;2023-06-14T03:46:55;20.20;67.00
7958;DHT22;4024;52.172;5.378;2023-06-14T03:49:23;20.20;67.30
7958;DHT22;4024;52.172;5.378;2023-06-14T03:51:50;20.10;68.30
7958;DHT22;4024;52.172;5.378;2023-06-14T03:54:16;20.10;68.20
7958;DHT22;4024;52.172;5.378;2023-06-14T03:56:42;20.10;68.20
7958;DHT22;4024;52.172;5.378;2023-06-14T03:59:07;20.00;68.50
7958;DHT22;4024;52.172;5.378;2023-06-14T04:01:33;20.00;68.60
7958;DHT22;4024;52.172;5.378;2023-06-14T04:03:59;20.00;69.00
7958;DHT22;4024;52.172;5.378;2023-06-14T04:06:25;20.00;69.30
7958;DHT22;4024;52.172;5.378;2023-06-14T04:08:57;20.00;70.00
7958;DHT22;4024;52.172;5.378;2023-06-14T04:11:30;20.00;70.00
7958;DHT22;4024;52.172;5.378;2023-06-14T04:13:57;20.00;70.50
7958;DHT22;4024;52.172;5.378;2023-06-14T04:16:24;20.00;70.70
7958;DHT22;4024;52.172;5.378;2023-06-14T04:18:51;19.90;71.50
7958;DHT22;4024;52.172;5.378;2023-06-14T04:21:18;20.00;71.80
7958;DHT22;4024;52.172;5.378;2023-06-14T04:23:43;20.00;71.60
7958;DHT22;4024;52.172;5.378;2023-06-14T04:26:10;20.00;71.90
7958;DHT22;4024;52.172;5.378;2023-06-14T04:28:36;20.00;72.40
7958;DHT22;4024;52.172;5.378;2023-06-14T04:31:07;20.00;72.70
7958;DHT22;4024;52.172;5.378;2023-06-14T04:33:35;20.00;73.30
7958;DHT22;4024;52.172;5.378;2023-06-14T04:36:10;19.90;73.00
7958;DHT22;4024;52.172;5.378;2023-06-14T04:38:37;20.10;73.80
7958;DHT22;4024;52.172;5.378;2023-06-14T04:41:03;20.20;74.30
7958;DHT22;4024;52.172;5.378;2023-06-14T04:43:28;20.30;75.10
7958;DHT22;4024;52.172;5.378;2023-06-14T04:45:54;20.50;75.00
7958;DHT22;4024;52.172;5.378;2023-06-14T04:48:22;20.90;75.30
7958;DHT22;4024;52.172;5.378;2023-06-14T04:50:48;21.30;74.90
7958;DHT22;4024;52.172;5.378;2023-06-14T04:53:13;21.70;74.60
7958;DHT22;4024;52.172;5.378;2023-06-14T04:55:39;22.10;73.70
7958;DHT22;4024;52.172;5.378;2023-06-14T04:58:05;22.60;72.40
7958;DHT22;4024;52.172;5.378;2023-06-14T05:00:31;23.00;70.70
7958;DHT22;4024;52.172;5.378;2023-06-14T05:02:57;23.50;70.00
7958;DHT22;4024;52.172;5.378;2023-06-14T05:05:22;23.90;68.20
7958;DHT22;4024;52.172;5.378;2023-06-14T05:07:49;24.30;66.70
7958;DHT22;4024;52.172;5.378;2023-06-14T05:10:15;24.80;64.90
7958;DHT22;4024;52.172;5.378;2023-06-14T05:12:40;25.10;64.00
7958;DHT22;4024;52.172;5.378;2023-06-14T05:15:09;25.50;62.10
7958;DHT22;4024;52.172;5.378;2023-06-14T05:17:37;25.80;59.70
7958;DHT22;4024;52.172;5.378;2023-06-14T05:20:03;26.20;58.40
7958;DHT22;4024;52.172;5.378;2023-06-14T05:22:29;26.50;57.50
7958;DHT22;4024;52.172;5.378;2023-06-14T05:24:55;26.80;56.40
7958;DHT22;4024;52.172;5.378;2023-06-14T05:27:20;27.00;55.50
7958;DHT22;4024;52.172;5.378;2023-06-14T05:29:46;27.30;54.90
7958;DHT22;4024;52.172;5.378;2023-06-14T05:32:12;27.50;54.20
7958;DHT22;4024;52.172;5.378;2023-06-14T05:34:38;27.70;54.10
7958;DHT22;4024;52.172;5.378;2023-06-14T05:37:04;27.90;53.00
7958;DHT22;4024;52.172;5.378;2023-06-14T05:39:29;28.20;52.50
7958;DHT22;4024;52.172;5.378;2023-06-14T05:41:55;28.40;51.90
7958;DHT22;4024;52.172;5.378;2023-06-14T05:44:21;28.60;51.30
7958;DHT22;4024;52.172;5.378;2023-06-14T05:46:46;28.80;50.30
7958;DHT22;4024;52.172;5.378;2023-06-14T05:49:12;29.00;49.40
7958;DHT22;4024;52.172;5.378;2023-06-14T05:51:38;29.10;49.00
7958;DHT22;4024;52.172;5.378;2023-06-14T05:54:03;29.30;48.80
7958;DHT22;4024;52.172;5.378;2023-06-14T05:56:29;29.40;48.00
7958;DHT22;4024;52.172;5.378;2023-06-14T05:58:55;29.50;47.90
7958;DHT22;4024;52.172;5.378;2023-06-14T06:01:20;29.60;47.20
7958;DHT22;4024;52.172;5.378;2023-06-14T06:03:46;29.80;47.50
7958;DHT22;4024;52.172;5.378;2023-06-14T06:06:13;29.80;46.50
7958;DHT22;4024;52.172;5.378;2023-06-14T06:08:39;29.90;46.70
7958;DHT22;4024;52.172;5.378;2023-06-14T06:11:05;30.00;46.50
7958;DHT22;4024;52.172;5.378;2023-06-14T06:13:31;30.10;46.40
7958;DHT22;4024;52.172;5.378;2023-06-14T06:15:57;30.20;46.10
7958;DHT22;4024;52.172;5.378;2023-06-14T06:18:23;30.30;45.60
7958;DHT22;4024;52.172;5.378;2023-06-14T06:20:48;30.30;45.20
7958;DHT22;4024;52.172;5.378;2023-06-14T06:23:14;30.30;45.10
7958;DHT22;4024;52.172;5.378;2023-06-14T06:25:40;30.40;45.00
7958;DHT22;4024;52.172;5.378;2023-06-14T06:28:05;30.40;44.60
7958;DHT22;4024;52.172;5.378;2023-06-14T06:30:31;30.50;44.30
7958;DHT22;4024;52.172;5.378;2023-06-14T06:32:57;30.50;44.10
7958;DHT22;4024;52.172;5.378;2023-06-14T06:35:22;30.60;44.20
7958;DHT22;4024;52.172;5.378;2023-06-14T06:37:48;30.60;43.90
7958;DHT22;4024;52.172;5.378;2023-06-14T06:40:14;30.80;44.20
7958;DHT22;4024;52.172;5.378;2023-06-14T06:42:39;30.80;43.80
7958;DHT22;4024;52.172;5.378;2023-06-14T06:45:05;30.90;43.40
7958;DHT22;4024;52.172;5.378;2023-06-14T06:47:31;31.00;43.20
7958;DHT22;4024;52.172;5.378;2023-06-14T06:49:56;31.10;43.00
7958;DHT22;4024;52.172;5.378;2023-06-14T06:52:22;31.20;42.90
7958;DHT22;4024;52.172;5.378;2023-06-14T06:54:48;31.20;42.60
7958;DHT22;4024;52.172;5.378;2023-06-14T06:57:14;31.30;42.70
7958;DHT22;4024;52.172;5.378;2023-06-14T06:59:40;31.40;42.80
7958;DHT22;4024;52.172;5.378;2023-06-14T07:02:06;31.50;42.20
7958;DHT22;4024;52.172;5.378;2023-06-14T07:04:31;31.50;41.90
7958;DHT22;4024;52.172;5.378;2023-06-14T07:06:57;31.60;41.90
7958;DHT22;4024;52.172;5.378;2023-06-14T07:09:23;31.60;41.40
7958;DHT22;4024;52.172;5.378;2023-06-14T07:11:50;31.60;41.30
7958;DHT22;4024;52.172;5.378;2023-06-14T07:14:15;31.60;41.30
7958;DHT22;4024;52.172;5.378;2023-06-14T07:16:41;31.70;41.60
7958;DHT22;4024;52.172;5.378;2023-06-14T07:19:08;31.80;41.70
7958;DHT22;4024;52.172;5.378;2023-06-14T07:21:34;32.00;41.50
7958;DHT22;4024;52.172;5.378;2023-06-14T07:24:00;32.00;40.80
7958;DHT22;4024;52.172;5.378;2023-06-14T07:26:26;32.10;40.10
7958;DHT22;4024;52.172;5.378;2023-06-14T07:28:51;32.10;40.10
7958;DHT22;4024;52.172;5.378;2023-06-14T07:31:18;32.00;39.80
7958;DHT22;4024;52.172;5.378;2023-06-14T07:33:45;32.00;39.80
7958;DHT22;4024;52.172;5.378;2023-06-14T07:36:10;32.00;39.60
7958;DHT22;4024;52.172;5.378;2023-06-14T07:38:36;32.00;39.60
7958;DHT22;4024;52.172;5.378;2023-06-14T07:41:02;31.90;39.40
7958;DHT22;4024;52.172;5.378;2023-06-14T07:43:28;32.00;39.50
7958;DHT22;4024;52.172;5.378;2023-06-14T07:45:53;32.00;39.60
7958;DHT22;4024;52.172;5.378;2023-06-14T07:48:19;32.00;39.50
7958;DHT22;4024;52.172;5.378;2023-06-14T07:50:45;32.10;39.40
7958;DHT22;4024;52.172;5.378;2023-06-14T07:53:10;32.20;39.30
7958;DHT22;4024;52.172;5.378;2023-06-14T07:55:36;32.20;39.40
7958;DHT22;4024;52.172;5.378;2023-06-14T07:58:06;32.30;39.20
7958;DHT22;4024;52.172;5.378;2023-06-14T08:00:31;32.30;38.40
7958;DHT22;4024;52.172;5.378;2023-06-14T08:02:57;32.30;38.40
7958;DHT22;4024;52.172;5.378;2023-06-14T08:05:25;32.30;38.30
7958;DHT22;4024;52.172;5.378;2023-06-14T08:07:54;32.40;38.40
7958;DHT22;4024;52.172;5.378;2023-06-14T08:10:21;32.40;38.40
7958;DHT22;4024;52.172;5.378;2023-06-14T08:12:47;32.40;38.30
7958;DHT22;4024;52.172;5.378;2023-06-14T08:15:13;32.50;38.10
7958;DHT22;4024;52.172;5.378;2023-06-14T08:17:39;32.50;38.00
7958;DHT22;4024;52.172;5.378;2023-06-14T08:20:05;32.50;38.10
7958;DHT22;4024;52.172;5.378;2023-06-14T08:22:31;32.50;37.90
7958;DHT22;4024;52.172;5.378;2023-06-14T08:25:00;32.60;38.00
7958;DHT22;4024;52.172;5.378;2023-06-14T08:27:26;32.70;37.60
7958;DHT22;4024;52.172;5.378;2023-06-14T08:29:53;32.80;37.40
7958;DHT22;4024;52.172;5.378;2023-06-14T08:32:19;32.90;37.50
7958;DHT22;4024;52.172;5.378;2023-06-14T08:34:44;32.80;36.90
7958;DHT22;4024;52.172;5.378;2023-06-14T08:37:10;32.90;37.20
7958;DHT22;4024;52.172;5.378;2023-06-14T08:39:36;32.90;37.20
7958;DHT22;4024;52.172;5.378;2023-06-14T08:42:02;32.90;37.40
7958;DHT22;4024;52.172;5.378;2023-06-14T08:44:29;33.00;37.10
7958;DHT22;4024;52.172;5.378;2023-06-14T08:46:56;33.00;37.00
7958;DHT22;4024;52.172;5.378;2023-06-14T08:49:25;33.00;36.50
7958;DHT22;4024;52.172;5.378;2023-06-14T08:51:56;33.00;36.40
7958;DHT22;4024;52.172;5.378;2023-06-14T08:54:23;33.00;36.70
7958;DHT22;4024;52.172;5.378;2023-06-14T08:56:49;33.00;35.70
7958;DHT22;4024;52.172;5.378;2023-06-14T08:59:17;33.00;35.80
7958;DHT22;4024;52.172;5.378;2023-06-14T09:01:45;32.90;35.50
7958;DHT22;4024;52.172;5.378;2023-06-14T09:04:11;32.80;35.30
7958;DHT22;4024;52.172;5.378;2023-06-14T09:06:36;32.70;35.20
7958;DHT22;4024;52.172;5.378;2023-06-14T09:09:02;32.70;35.00
7958;DHT22;4024;52.172;5.378;2023-06-14T09:11:30;32.60;34.80
7958;DHT22;4024;52.172;5.378;2023-06-14T09:13:56;32.50;34.50
7958;DHT22;4024;52.172;5.378;2023-06-14T09:16:22;32.40;34.40
7958;DHT22;4024;52.172;5.378;2023-06-14T09:18:47;32.40;34.70
7958;DHT22;4024;52.172;5.378;2023-06-14T09:21:15;32.20;34.30
7958;DHT22;4024;52.172;5.378;2023-06-14T09:23:42;32.10;34.40
7958;DHT22;4024;52.172;5.378;2023-06-14T09:26:09;32.00;34.40
7958;DHT22;4024;52.172;5.378;2023-06-14T09:28:35;32.00;34.30
7958;DHT22;4024;52.172;5.378;2023-06-14T09:31:01;31.80;34.30
7958;DHT22;4024;52.172;5.378;2023-06-14T09:33:27;31.60;34.40
7958;DHT22;4024;52.172;5.378;2023-06-14T09:35:54;31.50;34.30
7958;DHT22;4024;52.172;5.378;2023-06-14T09:38:20;31.50;34.60
7958;DHT22;4024;52.172;5.378;2023-06-14T09:40:46;31.40;34.70
7958;DHT22;4024;52.172;5.378;2023-06-14T09:43:11;31.40;35.00
7958;DHT22;4024;52.172;5.378;2023-06-14T09:45:38;31.40;35.10
7958;DHT22;4024;52.172;5.378;2023-06-14T09:48:06;31.40;34.90
7958;DHT22;4024;52.172;5.378;2023-06-14T09:50:33;31.30;34.70
7958;DHT22;4024;52.172;5.378;2023-06-14T09:53:03;31.30;35.00
7958;DHT22;4024;52.172;5.378;2023-06-14T09:55:31;31.30;35.00
7958;DHT22;4024;52.172;5.378;2023-06-14T09:58:00;31.30;35.10
7958;DHT22;4024;52.172;5.378;2023-06-14T10:00:29;31.30;35.20
7958;DHT22;4024;52.172;5.378;2023-06-14T10:03:05;31.30;34.70
7958;DHT22;4024;52.172;5.378;2023-06-14T10:05:32;31.30;34.70
7958;DHT22;4024;52.172;5.378;2023-06-14T10:08:07;31.30;35.30
7958;DHT22;4024;52.172;5.378;2023-06-14T10:10:33;31.30;35.60
7958;DHT22;4024;52.172;5.378;2023-06-14T10:12:59;31.30;35.70
7958;DHT22;4024;52.172;5.378;2023-06-14T10:15:38;31.30;35.60
7958;DHT22;4024;52.172;5.378;2023-06-14T10:18:14;31.30;35.60
7958;DHT22;4024;52.172;5.378;2023-06-14T10:20:53;31.30;35.10
7958;DHT22;4024;52.172;5.378;2023-06-14T10:23:23;31.20;34.60
7958;DHT22;4024;52.172;5.378;2023-06-14T10:25:50;31.20;34.60
7958;DHT22;4024;52.172;5.378;2023-06-14T10:28:20;31.10;34.70
7958;DHT22;4024;52.172;5.378;2023-06-14T10:33:33;30.90;34.80
7958;DHT22;4024;52.172;5.378;2023-06-14T10:39:17;30.70;34.80
7958;DHT22;4024;52.172;5.378;2023-06-14T10:41:52;30.60;35.20
7958;DHT22;4024;52.172;5.378;2023-06-14T10:46:53;30.30;34.70
7958;DHT22;4024;52.172;5.378;2023-06-14T10:49:20;30.20;34.90
7958;DHT22;4024;52.172;5.378;2023-06-14T10:52:02;30.00;34.90
7958;DHT22;4024;52.172;5.378;2023-06-14T10:54:28;29.90;35.30
7958;DHT22;4024;52.172;5.378;2023-06-14T10:56:54;29.80;35.50
7958;DHT22;4024;52.172;5.378;2023-06-14T10:59:20;29.80;35.70
7958;DHT22;4024;52.172;5.378;2023-06-14T11:04:50;29.70;36.00
7958;DHT22;4024;52.172;5.378;2023-06-14T11:07:50;29.50;35.90
7958;DHT22;4024;52.172;5.378;2023-06-14T11:10:33;29.50;35.80
7958;DHT22;4024;52.172;5.378;2023-06-14T11:13:01;29.50;35.90
7958;DHT22;4024;52.172;5.378;2023-06-14T11:15:31;29.40;35.90
7958;DHT22;4024;52.172;5.378;2023-06-14T11:17:59;29.40;36.40
7958;DHT22;4024;52.172;5.378;2023-06-14T11:20:26;29.30;36.50
7958;DHT22;4024;52.172;5.378;2023-06-14T11:22:53;29.30;36.40
7958;DHT22;4024;52.172;5.378;2023-06-14T11:25:19;29.40;36.70
7958;DHT22;4024;52.172;5.378;2023-06-14T11:27:45;29.40;36.60
7958;DHT22;4024;52.172;5.378;2023-06-14T11:30:13;29.40;36.10
7958;DHT22;4024;52.172;5.378;2023-06-14T11:32:39;29.40;36.50
7958;DHT22;4024;52.172;5.378;2023-06-14T11:35:05;29.40;36.30
7958;DHT22;4024;52.172;5.378;2023-06-14T11:37:32;29.30;36.50
7958;DHT22;4024;52.172;5.378;2023-06-14T11:40:01;29.30;36.30
7958;DHT22;4024;52.172;5.378;2023-06-14T11:42:29;29.30;36.40
7958;DHT22;4024;52.172;5.378;2023-06-14T11:44:55;29.20;36.40
7958;DHT22;4024;52.172;5.378;2023-06-14T11:47:22;29.20;36.60
7958;DHT22;4024;52.172;5.378;2023-06-14T11:49:48;29.20;36.70
7958;DHT22;4024;52.172;5.378;2023-06-14T11:52:14;29.20;36.70
7958;DHT22;4024;52.172;5.378;2023-06-14T11:54:40;29.20;36.40
7958;DHT22;4024;52.172;5.378;2023-06-14T11:57:09;29.20;36.50
7958;DHT22;4024;52.172;5.378;2023-06-14T11:59:43;29.20;36.70
7958;DHT22;4024;52.172;5.378;2023-06-14T12:02:09;29.20;36.90
7958;DHT22;4024;52.172;5.378;2023-06-14T12:04:41;29.20;37.00
7958;DHT22;4024;52.172;5.378;2023-06-14T12:07:11;29.30;36.90
7958;DHT22;4024;52.172;5.378;2023-06-14T12:09:41;29.20;36.90
7958;DHT22;4024;52.172;5.378;2023-06-14T12:12:12;29.30;37.20
7958;DHT22;4024;52.172;5.378;2023-06-14T12:14:41;29.30;36.90
7958;DHT22;4024;52.172;5.378;2023-06-14T12:17:07;29.30;36.90
7958;DHT22;4024;52.172;5.378;2023-06-14T12:19:33;29.30;37.00
7958;DHT22;4024;52.172;5.378;2023-06-14T12:22:07;29.40;36.90
7958;DHT22;4024;52.172;5.378;2023-06-14T12:24:34;29.40;37.00
7958;DHT22;4024;52.172;5.378;2023-06-14T12:27:00;29.40;37.00
7958;DHT22;4024;52.172;5.378;2023-06-14T12:29:26;29.40;37.20
7958;DHT22;4024;52.172;5.378;2023-06-14T12:31:52;29.50;37.20
7958;DHT22;4024;52.172;5.378;2023-06-14T12:34:20;29.50;37.10
7958;DHT22;4024;52.172;5.378;2023-06-14T12:36:46;29.60;37.20
7958;DHT22;4024;52.172;5.378;2023-06-14T12:39:12;29.60;37.40
7958;DHT22;4024;52.172;5.378;2023-06-14T12:41:37;29.60;37.50
7958;DHT22;4024;52.172;5.378;2023-06-14T12:44:03;29.60;37.50
7958;DHT22;4024;52.172;5.378;2023-06-14T12:46:32;29.70;37.50
7958;DHT22;4024;52.172;5.378;2023-06-14T12:48:57;29.70;37.60
7958;DHT22;4024;52.172;5.378;2023-06-14T12:51:23;29.80;37.50
7958;DHT22;4024;52.172;5.378;2023-06-14T12:53:50;29.80;37.70
7958;DHT22;4024;52.172;5.378;2023-06-14T12:56:15;29.80;37.60
7958;DHT22;4024;52.172;5.378;2023-06-14T12:58:41;29.80;37.60
7958;DHT22;4024;52.172;5.378;2023-06-14T13:01:07;29.90;37.50
7958;DHT22;4024;52.172;5.378;2023-06-14T13:03:33;29.90;37.40
7958;DHT22;4024;52.172;5.378;2023-06-14T13:06:00;29.90;37.40
7958;DHT22;4024;52.172;5.378;2023-06-14T13:08:26;29.90;37.40
7958;DHT22;4024;52.172;5.378;2023-06-14T13:10:53;29.90;37.10
7958;DHT22;4024;52.172;5.378;2023-06-14T13:13:18;30.00;36.80
7958;DHT22;4024;52.172;5.378;2023-06-14T13:15:44;30.00;36.50
7958;DHT22;4024;52.172;5.378;2023-06-14T13:18:12;30.00;36.30
7958;DHT22;4024;52.172;5.378;2023-06-14T13:20:40;29.90;36.20
7958;DHT22;4024;52.172;5.378;2023-06-14T13:23:06;30.00;36.20
7958;DHT22;4024;52.172;5.378;2023-06-14T13:25:33;30.10;36.50
7958;DHT22;4024;52.172;5.378;2023-06-14T13:27:59;30.10;36.40
7958;DHT22;4024;52.172;5.378;2023-06-14T13:30:25;30.20;36.60
7958;DHT22;4024;52.172;5.378;2023-06-14T13:32:51;30.20;36.40
7958;DHT22;4024;52.172;5.378;2023-06-14T13:35:18;30.30;36.40
7958;DHT22;4024;52.172;5.378;2023-06-14T13:37:44;30.30;36.40
7958;DHT22;4024;52.172;5.378;2023-06-14T13:40:11;30.30;36.50
7958;DHT22;4024;52.172;5.378;2023-06-14T13:42:37;30.40;36.40
7958;DHT22;4024;52.172;5.378;2023-06-14T13:45:03;30.40;36.20
7958;DHT22;4024;52.172;5.378;2023-06-14T13:47:29;30.40;36.00
7958;DHT22;4024;52.172;5.378;2023-06-14T13:49:55;30.40;36.00
7958;DHT22;4024;52.172;5.378;2023-06-14T13:52:22;30.30;36.00
7958;DHT22;4024;52.172;5.378;2023-06-14T13:54:48;30.30;36.30
7958;DHT22;4024;52.172;5.378;2023-06-14T13:57:14;30.30;36.30
7958;DHT22;4024;52.172;5.378;2023-06-14T13:59:40;30.30;36.20
7958;DHT22;4024;52.172;5.378;2023-06-14T14:02:06;30.20;36.40
7958;DHT22;4024;52.172;5.378;2023-06-14T14:04:33;30.20;37.00
7958;DHT22;4024;52.172;5.378;2023-06-14T14:06:58;30.30;36.60
7958;DHT22;4024;52.172;5.378;2023-06-14T14:09:24;30.20;36.50
7958;DHT22;4024;52.172;5.378;2023-06-14T14:11:50;30.20;36.50
7958;DHT22;4024;52.172;5.378;2023-06-14T14:14:15;30.20;36.50
7958;DHT22;4024;52.172;5.378;2023-06-14T14:16:41;30.20;36.80
7958;DHT22;4024;52.172;5.378;2023-06-14T14:19:07;30.20;36.80
7958;DHT22;4024;52.172;5.378;2023-06-14T14:21:33;30.20;36.50
7958;DHT22;4024;52.172;5.378;2023-06-14T14:23:58;30.20;36.30
7958;DHT22;4024;52.172;5.378;2023-06-14T14:26:24;30.20;36.30
7958;DHT22;4024;52.172;5.378;2023-06-14T14:28:51;30.20;36.50
7958;DHT22;4024;52.172;5.378;2023-06-14T14:31:17;30.20;36.50
7958;DHT22;4024;52.172;5.378;2023-06-14T14:33:42;30.20;36.80
7958;DHT22;4024;52.172;5.378;2023-06-14T14:36:09;30.20;36.90
7958;DHT22;4024;52.172;5.378;2023-06-14T14:38:34;30.30;37.20
7958;DHT22;4024;52.172;5.378;2023-06-14T14:41:00;30.30;36.80
7958;DHT22;4024;52.172;5.378;2023-06-14T14:43:26;30.30;36.50
7958;DHT22;4024;52.172;5.378;2023-06-14T14:45:52;30.30;36.40
7958;DHT22;4024;52.172;5.378;2023-06-14T14:48:18;30.30;36.60
7958;DHT22;4024;52.172;5.378;2023-06-14T14:50:43;30.30;36.60
7958;DHT22;4024;52.172;5.378;2023-06-14T14:53:09;30.30;36.30
7958;DHT22;4024;52.172;5.378;2023-06-14T14:55:35;30.30;36.20
7958;DHT22;4024;52.172;5.378;2023-06-14T14:58:02;30.40;35.90
7958;DHT22;4024;52.172;5.378;2023-06-14T15:00:28;30.40;36.10
7958;DHT22;4024;52.172;5.378;2023-06-14T15:02:54;30.50;36.50
7958;DHT22;4024;52.172;5.378;2023-06-14T15:05:20;30.50;36.30
7958;DHT22;4024;52.172;5.378;2023-06-14T15:07:45;30.50;36.20
7958;DHT22;4024;52.172;5.378;2023-06-14T15:10:11;30.50;36.20
7958;DHT22;4024;52.172;5.378;2023-06-14T15:12:37;30.50;36.00
7958;DHT22;4024;52.172;5.378;2023-06-14T15:15:03;30.50;36.20
7958;DHT22;4024;52.172;5.378;2023-06-14T15:17:29;30.40;36.30
7958;DHT22;4024;52.172;5.378;2023-06-14T15:19:55;30.40;36.20
7958;DHT22;4024;52.172;5.378;2023-06-14T15:22:20;30.40;36.00
7958;DHT22;4024;52.172;5.378;2023-06-14T15:24:46;30.30;36.50
7958;DHT22;4024;52.172;5.378;2023-06-14T15:27:12;30.30;35.60
7958;DHT22;4024;52.172;5.378;2023-06-14T15:29:41;30.40;35.80
7958;DHT22;4024;52.172;5.378;2023-06-14T15:32:07;30.40;35.90
7958;DHT22;4024;52.172;5.378;2023-06-14T15:34:33;30.30;35.70
7958;DHT22;4024;52.172;5.378;2023-06-14T15:36:59;30.40;35.60
7958;DHT22;4024;52.172;5.378;2023-06-14T15:39:25;30.40;35.40
7958;DHT22;4024;52.172;5.378;2023-06-14T15:41:52;30.40;35.50
7958;DHT22;4024;52.172;5.378;2023-06-14T15:44:17;30.30;35.30
7958;DHT22;4024;52.172;5.378;2023-06-14T15:46:43;30.30;35.00
7958;DHT22;4024;52.172;5.378;2023-06-14T15:49:09;30.30;35.10
7958;DHT22;4024;52.172;5.378;2023-06-14T15:51:36;30.30;35.20
7958;DHT22;4024;52.172;5.378;2023-06-14T15:54:02;30.30;35.70
7958;DHT22;4024;52.172;5.378;2023-06-14T15:56:28;30.30;36.00
7958;DHT22;4024;52.172;5.378;2023-06-14T15:58:53;30.40;36.30
7958;DHT22;4024;52.172;5.378;2023-06-14T16:01:19;30.40;36.40
7958;DHT22;4024;52.172;5.378;2023-06-14T16:03:44;30.50;36.50
7958;DHT22;4024;52.172;5.378;2023-06-14T16:06:10;30.50;36.10
7958;DHT22;4024;52.172;5.378;2023-06-14T16:08:35;30.50;35.70
7958;DHT22;4024;52.172;5.378;2023-06-14T16:11:01;30.50;35.30
7958;DHT22;4024;52.172;5.378;2023-06-14T16:13:27;30.50;34.80
7958;DHT22;4024;52.172;5.378;2023-06-14T16:15:52;30.40;34.90